createdAt,value
2019-03-10T00:03:06.807Z,99984.14
2019-03-10T00:05:35.597Z,99700.75
2019-03-10T00:08:03.787Z,99978.48
2019-03-10T00:10:32.021Z,99976.88
2019-03-10T00:13:00.203Z,99980.97
2019-03-10T00:15:28.450Z,99987.77
2019-03-10T00:17:56.692Z,99987.02
2019-03-10T00:20:25.145Z,99983.96
2019-03-10T00:22:53.348Z,99985.19
2019-03-10T00:25:21.569Z,99979.16
2019-03-10T00:27:49.796Z,99981.96
2019-03-10T00:30:18.112Z,99971.84
2019-03-10T00:32:46.270Z,99972.95
2019-03-10T00:35:15.030Z,99978.20
2019-03-10T00:37:43.335Z,99968.56
2019-03-10T00:40:52.440Z,99960.74
2019-03-10T00:44:14.100Z,99965.06
2019-03-10T00:47:24.086Z,99958.50
2019-03-10T00:50:22.493Z,99678.09
2019-03-10T00:52:59.121Z,99947.70
2019-03-10T00:55:27.419Z,99956.70
2019-03-10T00:57:55.622Z,99953.09
2019-03-10T01:00:23.955Z,99955.13
2019-03-10T01:02:52.184Z,99502.41
2019-03-10T01:05:20.315Z,99949.05
2019-03-10T01:07:48.825Z,99948.24
2019-03-10T01:10:17.043Z,99945.72
2019-03-10T01:12:45.177Z,99952.01
2019-03-10T01:15:13.537Z,99928.06
2019-03-10T01:17:42.210Z,99927.52
2019-03-10T01:20:10.962Z,99912.95
2019-03-10T01:22:39.466Z,99910.27
2019-03-10T01:25:08.195Z,99906.11
2019-03-10T01:27:36.418Z,99901.06
2019-03-10T01:30:05.586Z,99895.71
2019-03-10T01:33:10.442Z,99892.41
2019-03-10T01:35:42.593Z,99887.09
2019-03-10T01:38:10.824Z,99888.05
2019-03-10T01:40:39.054Z,99879.27
2019-03-10T01:43:07.223Z,99879.03
2019-03-10T01:45:35.392Z,99874.58
2019-03-10T01:48:03.691Z,99869.62
2019-03-10T01:50:32.062Z,99861.47
2019-03-10T01:53:00.281Z,99849.70
2019-03-10T01:55:28.624Z,99839.79
2019-03-10T01:57:56.805Z,99848.45
2019-03-10T02:00:25.172Z,99843.03
2019-03-10T02:02:53.327Z,99842.47
2019-03-10T02:05:21.666Z,99830.48
2019-03-10T02:07:49.997Z,99821.53
2019-03-10T02:10:18.763Z,99819.47
2019-03-10T02:12:47.229Z,99825.49
2019-03-10T02:15:15.975Z,99817.98
2019-03-10T02:17:44.200Z,99813.65
2019-03-10T02:20:15.057Z,99817.03
2019-03-10T02:22:43.350Z,99819.17
2019-03-10T02:25:11.643Z,99826.30
2019-03-10T02:27:39.794Z,99818.24
2019-03-10T02:30:10.006Z,99812.55
2019-03-10T02:32:38.197Z,99811.08
2019-03-10T02:35:06.800Z,99810.55
2019-03-10T02:37:34.999Z,99817.37
2019-03-10T02:40:03.187Z,99805.33
2019-03-10T02:42:31.668Z,99817.37
2019-03-10T02:44:59.827Z,99813.02
2019-03-10T02:47:27.980Z,99800.19
2019-03-10T02:49:56.398Z,99801.44
2019-03-10T02:52:24.604Z,99806.25
2019-03-10T02:54:52.792Z,99797.16
2019-03-10T02:57:20.967Z,99796.70
2019-03-10T02:59:49.323Z,99800.19
2019-03-10T03:02:17.718Z,99782.91
2019-03-10T03:04:45.893Z,99775.44
2019-03-10T03:07:14.099Z,99777.51
2019-03-10T03:09:42.271Z,99773.44
2019-03-10T03:12:10.765Z,99762.10
2019-03-10T03:14:39.342Z,99753.45
2019-03-10T03:17:07.517Z,99749.84
2019-03-10T03:19:35.669Z,99741.01
2019-03-10T03:22:03.878Z,99740.23
2019-03-10T03:24:32.123Z,99737.52
2019-03-10T03:27:02.512Z,99736.56
2019-03-10T03:29:30.192Z,99739.45
2019-03-10T03:31:58.691Z,99726.11
2019-03-10T03:34:26.984Z,99733.59
2019-03-10T03:36:55.111Z,99718.45
2019-03-10T03:39:30.295Z,99710.22
2019-03-10T03:41:58.482Z,99714.86
2019-03-10T03:44:26.703Z,99708.55
2019-03-10T03:46:55.156Z,99705.47
2019-03-10T03:49:23.345Z,99704.69
2019-03-10T03:51:51.476Z,99691.56
2019-03-10T03:54:19.609Z,99691.68
2019-03-10T03:56:47.876Z,99689.61
2019-03-10T03:59:15.967Z,99673.45
2019-03-10T04:02:03.073Z,99665.86
2019-03-10T04:04:31.241Z,99665.73
2019-03-10T04:06:59.682Z,99667.91
2019-03-10T04:09:27.819Z,99674.80
2019-03-10T04:11:55.957Z,99666.81
2019-03-10T04:14:24.142Z,99665.43
2019-03-10T04:16:52.293Z,99659.72
2019-03-10T04:19:20.512Z,99648.95
2019-03-10T04:21:48.859Z,99649.70
2019-03-10T04:24:16.980Z,99647.84
2019-03-10T04:26:45.165Z,99652.45
2019-03-10T04:29:13.430Z,99644.48
2019-03-10T04:31:41.714Z,99634.50
2019-03-10T04:34:09.981Z,99631.81
2019-03-10T04:36:38.159Z,99626.47
2019-03-10T04:39:07.665Z,99622.19
2019-03-10T04:41:35.843Z,99616.94
2019-03-10T04:44:04.237Z,99606.34
2019-03-10T04:46:32.439Z,99604.72
2019-03-10T04:49:00.655Z,99602.27
2019-03-10T04:51:28.944Z,99599.57
2019-03-10T04:53:57.585Z,99592.16
2019-03-10T04:56:44.733Z,99591.06
2019-03-10T04:59:12.895Z,99605.88
2019-03-10T05:01:40.995Z,99610.91
2019-03-10T05:04:09.211Z,99597.84
2019-03-10T05:06:37.325Z,99587.98
2019-03-10T05:09:10.276Z,99579.24
2019-03-10T05:11:38.490Z,99581.47
2019-03-10T05:14:06.655Z,99577.61
2019-03-10T05:16:34.877Z,99564.63
2019-03-10T05:19:03.070Z,99561.53
2019-03-10T05:21:31.274Z,99560.34
2019-03-10T05:24:03.140Z,99552.59
2019-03-10T05:26:31.600Z,99541.70
2019-03-10T05:28:59.730Z,99534.07
2019-03-10T05:31:27.879Z,99545.30
2019-03-10T05:33:56.158Z,99546.31
2019-03-10T05:36:24.316Z,99540.95
2019-03-10T05:38:52.496Z,99540.25
2019-03-10T05:41:20.694Z,99530.86
2019-03-10T05:43:48.885Z,99525.76
2019-03-10T05:46:17.066Z,99518.28
2019-03-10T05:48:45.276Z,99516.62
2019-03-10T05:51:13.479Z,99514.16
2019-03-10T05:53:41.669Z,99503.33
2019-03-10T05:56:10.238Z,99499.63
2019-03-10T05:58:38.615Z,99490.25
2019-03-10T06:01:06.843Z,99489.93
2019-03-10T06:03:35.073Z,99491.14
2019-03-10T06:06:03.420Z,99489.34
2019-03-10T06:08:31.802Z,99480.61
2019-03-10T06:11:00.166Z,99465.97
2019-03-10T06:13:28.429Z,99466.80
2019-03-10T06:15:56.576Z,99466.02
2019-03-10T06:18:24.797Z,99455.30
2019-03-10T06:20:53.283Z,99450.47
2019-03-10T06:23:21.706Z,99436.83
2019-03-10T06:25:49.949Z,99438.00
2019-03-10T06:28:18.185Z,99418.94
2019-03-10T06:30:46.418Z,99409.09
2019-03-10T06:33:14.580Z,99407.63
2019-03-10T06:35:42.784Z,99402.34
2019-03-10T06:38:10.924Z,99404.93
2019-03-10T06:40:39.405Z,99401.91
2019-03-10T06:43:07.592Z,99395.52
2019-03-10T06:45:35.783Z,99395.70
2019-03-10T06:48:04.068Z,99390.66
2019-03-10T06:50:32.380Z,99382.54
2019-03-10T06:53:00.596Z,99374.05
2019-03-10T06:55:28.814Z,99359.77
2019-03-10T06:57:57.006Z,99359.41
2019-03-10T07:00:25.217Z,99359.80
2019-03-10T07:02:53.573Z,99352.47
2019-03-10T07:05:21.840Z,99346.34
2019-03-10T07:07:50.190Z,99343.64
2019-03-10T07:10:18.399Z,99332.99
2019-03-10T07:12:46.755Z,99324.38
2019-03-10T07:15:15.705Z,99316.16
2019-03-10T07:17:43.927Z,99315.66
2019-03-10T07:20:14.290Z,99306.87
2019-03-10T07:22:42.529Z,99301.67
2019-03-10T07:25:10.920Z,99298.22
2019-03-10T07:27:51.279Z,99295.00
2019-03-10T07:30:36.765Z,99289.64
2019-03-10T07:33:27.053Z,99282.44
2019-03-10T07:36:13.127Z,99275.16
2019-03-10T07:38:56.449Z,99265.14
2019-03-10T07:41:43.411Z,99260.92
2019-03-10T07:44:20.288Z,99260.12
2019-03-10T07:46:59.090Z,99265.95
2019-03-10T07:50:01.486Z,99264.34
2019-03-10T07:52:41.816Z,99254.77
2019-03-10T07:55:38.008Z,99240.56
2019-03-10T07:58:25.296Z,99237.55
2019-03-10T08:01:10.582Z,99226.16
2019-03-10T08:03:49.750Z,99219.69
2019-03-10T08:06:25.234Z,99221.97
2019-03-10T08:09:06.910Z,99220.08
2019-03-10T08:11:41.568Z,99212.70
2019-03-10T08:14:31.540Z,99205.97
2019-03-10T08:17:24.796Z,99213.45
2019-03-10T08:20:23.919Z,99204.14
2019-03-10T08:23:05.515Z,99193.45
2019-03-10T08:26:01.745Z,99172.05
2019-03-10T08:28:40.189Z,99174.88
2019-03-10T08:31:33.252Z,99181.79
2019-03-10T08:34:38.928Z,99167.66
2019-03-10T08:37:13.107Z,99158.77
2019-03-10T08:40:00.509Z,99151.39
2019-03-10T08:42:44.277Z,99145.55
2019-03-10T08:45:49.662Z,99131.65
2019-03-10T08:48:36.905Z,99122.97
2019-03-10T08:51:24.133Z,99119.81
2019-03-10T08:54:26.450Z,99109.82
2019-03-10T08:57:13.404Z,99109.23
2019-03-10T09:00:00.581Z,99096.20
2019-03-10T09:02:45.746Z,99083.30
2019-03-10T09:05:32.955Z,99074.23
2019-03-10T09:08:09.197Z,99072.35
2019-03-10T09:10:56.491Z,99056.57
2019-03-10T09:13:50.104Z,99047.48
2019-03-10T09:16:36.613Z,99045.98
2019-03-10T09:19:20.758Z,99039.61
2019-03-10T09:22:00.427Z,99035.38
2019-03-10T09:24:50.812Z,99034.80
2019-03-10T09:27:38.090Z,99020.98
2019-03-10T09:30:24.823Z,99013.50
2019-03-10T09:33:12.297Z,99013.35
2019-03-10T09:35:55.330Z,99009.20
2019-03-10T09:38:41.464Z,99002.27
2019-03-10T09:41:41.216Z,98996.70
2019-03-10T09:44:28.669Z,98996.39
2019-03-10T09:47:12.512Z,98986.37
2019-03-10T09:50:01.565Z,98973.65
2019-03-10T09:53:02.078Z,98961.30
2019-03-10T09:55:47.945Z,98952.37
2019-03-10T09:58:24.207Z,98939.73
2019-03-10T10:01:00.973Z,98933.47
2019-03-10T10:03:40.478Z,98911.42
2019-03-10T10:06:27.665Z,98924.58
2019-03-10T10:09:15.019Z,98894.19
2019-03-10T10:11:49.620Z,98891.20
2019-03-10T10:14:42.976Z,98885.33
2019-03-10T10:17:30.341Z,98887.75
2019-03-10T10:20:33.028Z,98883.64
2019-03-10T10:23:20.354Z,98877.11
2019-03-10T10:26:11.248Z,98859.72
2019-03-10T10:28:55.435Z,98858.37
2019-03-10T10:31:46.438Z,98858.05
2019-03-10T10:34:43.739Z,98850.05
2019-03-10T10:37:31.064Z,98847.15
2019-03-10T10:40:18.394Z,98838.05
2019-03-10T10:43:06.090Z,98833.58
2019-03-10T10:45:53.550Z,98822.66
2019-03-10T10:48:50.486Z,98816.52
2019-03-10T10:51:36.491Z,98811.77
2019-03-10T10:54:14.773Z,98815.70
2019-03-10T10:57:02.184Z,98811.05
2019-03-10T10:59:42.805Z,98801.58
2019-03-10T11:02:19.762Z,98790.88
2019-03-10T11:04:56.545Z,98782.78
2019-03-10T11:07:47.119Z,98775.48
2019-03-10T11:10:34.454Z,98766.08
2019-03-10T11:13:21.833Z,98754.45
2019-03-10T11:16:21.309Z,98749.66
2019-03-10T11:19:08.485Z,98740.89
2019-03-10T11:21:58.612Z,98741.14
2019-03-10T11:24:32.605Z,98744.61
2019-03-10T11:27:20.351Z,98744.61
2019-03-10T11:30:06.114Z,98738.88
2019-03-10T11:32:45.735Z,98737.08
2019-03-10T11:35:31.668Z,98730.41
2019-03-10T11:38:09.381Z,98732.20
2019-03-10T11:40:44.984Z,98728.05
2019-03-10T11:43:19.609Z,98730.40
2019-03-10T11:46:21.998Z,98727.36
2019-03-10T11:49:09.602Z,98717.23
2019-03-10T11:51:56.954Z,98709.64
2019-03-10T11:54:43.082Z,98694.98
2019-03-10T11:57:30.224Z,98682.69
2019-03-10T12:00:06.573Z,98693.03
2019-03-10T12:02:51.784Z,98686.69
2019-03-10T12:05:39.188Z,98672.59
2019-03-10T12:08:29.579Z,98674.62
2019-03-10T12:10:58.236Z,98669.88
2019-03-10T12:13:26.630Z,98662.56
2019-03-10T12:15:55.465Z,98649.58
2019-03-10T12:18:25.293Z,98646.64
2019-03-10T12:20:53.929Z,98644.25
2019-03-10T12:23:22.317Z,98645.20
2019-03-10T12:25:50.913Z,98643.09
2019-03-10T12:28:19.778Z,98637.70
2019-03-10T12:30:48.823Z,98636.75
2019-03-10T12:33:17.652Z,98639.64
2019-03-10T12:35:46.313Z,98635.39
2019-03-10T12:38:15.823Z,98632.62
2019-03-10T12:40:44.343Z,98620.13
2019-03-10T12:43:31.828Z,98611.59
2019-03-10T12:46:00.643Z,98607.35
2019-03-10T12:48:29.140Z,98585.30
2019-03-10T12:50:57.949Z,98586.34
2019-03-10T12:53:26.471Z,98572.03
2019-03-10T12:55:55.497Z,98571.13
2019-03-10T12:58:24.887Z,98566.42
2019-03-10T13:00:53.536Z,98559.80
2019-03-10T13:03:22.381Z,98550.80
2019-03-10T13:05:51.061Z,98541.25
2019-03-10T13:08:20.110Z,98534.17
2019-03-10T13:10:48.810Z,98528.80
2019-03-10T13:13:17.902Z,98523.95
2019-03-10T13:15:47.139Z,98516.80
2019-03-10T13:18:15.846Z,98511.42
2019-03-10T13:20:44.336Z,98506.64
2019-03-10T13:23:13.858Z,98500.63
2019-03-10T13:25:42.656Z,98492.39
2019-03-10T13:28:11.740Z,98483.00
2019-03-10T13:30:40.861Z,98483.97
2019-03-10T13:33:12.678Z,98474.03
2019-03-10T13:35:41.797Z,98474.81
2019-03-10T13:38:11.305Z,98472.24
2019-03-10T13:40:40.214Z,98473.77
2019-03-10T13:43:09.157Z,98472.38
2019-03-10T13:45:38.107Z,98460.13
2019-03-10T13:48:06.671Z,98467.87
2019-03-10T13:50:36.215Z,98479.34
2019-03-10T13:53:05.427Z,98463.93
2019-03-10T13:55:34.507Z,98449.96
2019-03-10T13:58:03.663Z,98453.59
2019-03-10T14:00:33.701Z,98455.56
2019-03-10T14:03:05.291Z,98452.09
2019-03-10T14:05:34.614Z,98448.89
2019-03-10T14:08:04.550Z,98444.89
2019-03-10T14:10:33.887Z,98438.30
2019-03-10T14:13:02.229Z,98436.52
2019-03-10T14:15:31.033Z,98422.47
2019-03-10T14:17:59.752Z,98411.70
2019-03-10T14:20:28.502Z,98414.91
2019-03-10T14:22:57.645Z,98417.52
2019-03-10T14:25:26.716Z,98419.25
2019-03-10T14:27:55.550Z,98405.33
2019-03-10T14:30:23.981Z,98399.76
2019-03-10T14:32:52.993Z,98393.20
2019-03-10T14:35:21.612Z,98394.90
2019-03-10T14:37:50.598Z,98388.19
2019-03-10T14:40:19.700Z,98381.09
2019-03-10T14:42:48.733Z,98383.88
2019-03-10T14:45:17.523Z,98367.54
2019-03-10T14:47:48.848Z,98358.31
2019-03-10T14:50:18.755Z,98359.41
2019-03-10T14:52:48.283Z,98078.39
2019-03-10T14:55:17.541Z,98364.91
2019-03-10T14:57:47.240Z,98366.25
2019-03-10T15:00:19.391Z,98381.59
2019-03-10T15:02:48.809Z,98363.98
2019-03-10T15:05:17.530Z,98362.16
2019-03-10T15:07:46.899Z,98390.11
2019-03-10T15:10:16.889Z,98404.59
2019-03-10T15:12:46.653Z,98397.36
2019-03-10T15:15:22.289Z,98385.55
2019-03-10T15:17:46.394Z,98408.68
2019-03-10T15:20:15.642Z,98412.70
2019-03-10T15:22:44.991Z,98413.86
2019-03-10T15:25:14.035Z,98415.37
2019-03-10T15:27:44.422Z,98420.53
2019-03-10T15:30:34.315Z,98458.82
2019-03-10T15:33:04.078Z,98450.73
2019-03-10T15:35:33.240Z,98457.41
2019-03-10T15:38:02.556Z,98472.05
2019-03-10T15:40:34.441Z,98479.30
2019-03-10T15:43:04.896Z,98488.94
2019-03-10T15:45:33.702Z,98507.69
2019-03-10T15:48:02.557Z,98506.94
2019-03-10T15:50:31.888Z,98518.30
2019-03-10T15:53:01.181Z,98545.63
2019-03-10T15:55:30.707Z,98548.26
2019-03-10T15:57:59.287Z,98526.67
2019-03-10T16:00:28.200Z,98536.94
2019-03-10T16:02:57.307Z,98555.45
2019-03-10T16:05:26.000Z,98537.23
2019-03-10T16:07:56.491Z,98550.16
2019-03-10T16:10:25.707Z,98538.97
2019-03-10T16:12:54.977Z,98543.20
2019-03-10T16:15:23.556Z,98556.11
2019-03-10T16:17:53.127Z,98552.41
2019-03-10T16:20:22.328Z,98547.63
2019-03-10T16:22:51.394Z,98550.77
2019-03-10T16:25:20.629Z,98547.98
2019-03-10T16:27:50.129Z,98545.67
2019-03-10T16:30:19.485Z,98556.94
2019-03-10T16:32:56.001Z,98542.70
2019-03-10T16:35:25.032Z,98548.88
2019-03-10T16:37:54.541Z,98540.64
2019-03-10T16:40:27.516Z,98559.63
2019-03-10T16:42:57.683Z,98559.98
2019-03-10T16:45:26.941Z,98570.32
2019-03-10T16:47:57.701Z,98562.55
2019-03-10T16:50:28.206Z,98567.42
2019-03-10T16:52:57.059Z,98570.25
2019-03-10T16:55:25.925Z,98566.86
2019-03-10T16:57:55.180Z,98576.48
2019-03-10T17:00:43.064Z,98558.78
2019-03-10T17:03:11.890Z,98584.88
2019-03-10T17:05:40.565Z,98589.30
2019-03-10T17:08:10.256Z,98596.96
2019-03-10T17:10:39.263Z,98605.04
2019-03-10T17:13:09.008Z,98629.46
2019-03-10T17:15:38.587Z,98729.67
2019-03-10T17:18:08.593Z,98751.90
2019-03-10T17:20:38.271Z,98771.88
2019-03-10T17:23:08.264Z,98808.02
2019-03-10T17:25:37.872Z,98821.97
2019-03-10T17:28:07.296Z,98853.41
2019-03-10T17:30:36.511Z,98890.52
2019-03-10T17:33:06.135Z,98920.25
2019-03-10T17:35:35.221Z,98933.63
2019-03-10T17:38:04.177Z,98977.77
2019-03-10T17:40:33.293Z,99015.90
2019-03-10T17:43:02.057Z,99040.04
2019-03-10T17:45:31.051Z,99074.16
2019-03-10T17:48:00.727Z,99115.28
2019-03-10T17:50:29.194Z,99139.25
2019-03-10T17:52:58.379Z,99178.67
2019-03-10T17:55:27.503Z,99207.38
2019-03-10T17:57:57.281Z,99240.45
2019-03-10T18:00:27.562Z,99263.06
2019-03-10T18:02:57.271Z,99278.30
2019-03-10T18:05:26.063Z,99312.90
2019-03-10T18:07:55.456Z,99327.58
2019-03-10T18:10:25.724Z,99344.77
2019-03-10T18:12:55.120Z,99366.40
2019-03-10T18:15:25.371Z,99389.58
2019-03-10T18:17:54.404Z,99411.40
2019-03-10T18:20:23.658Z,99430.11
2019-03-10T18:22:52.706Z,99438.82
2019-03-10T18:25:21.791Z,99454.89
2019-03-10T18:27:50.990Z,99463.18
2019-03-10T18:30:21.832Z,99469.50
2019-03-10T18:32:51.230Z,99481.94
2019-03-10T18:35:21.009Z,99500.45
2019-03-10T18:37:50.748Z,99502.94
2019-03-10T18:40:28.785Z,99514.72
2019-03-10T18:42:57.891Z,99529.73
2019-03-10T18:45:28.970Z,99522.51
2019-03-10T18:47:58.737Z,99533.55
2019-03-10T18:50:29.258Z,99541.44
2019-03-10T18:52:58.686Z,99551.06
2019-03-10T18:55:27.785Z,99559.47
2019-03-10T18:57:57.379Z,99564.62
2019-03-10T19:00:26.786Z,99566.61
2019-03-10T19:02:56.614Z,99578.07
2019-03-10T19:05:26.747Z,99582.37
2019-03-10T19:08:15.287Z,99592.09
2019-03-10T19:10:45.560Z,99604.09
2019-03-10T19:13:15.956Z,99600.95
2019-03-10T19:15:45.560Z,99617.36
2019-03-10T19:18:15.742Z,99625.60
2019-03-10T19:20:45.441Z,99626.00
2019-03-10T19:23:15.438Z,99626.00
2019-03-10T19:25:46.662Z,99635.74
2019-03-10T19:28:16.047Z,99630.81
2019-03-10T19:30:47.162Z,99641.59
2019-03-10T19:33:16.762Z,99276.35
2019-03-10T19:35:47.329Z,99637.06
2019-03-10T19:38:18.432Z,99639.61
2019-03-10T19:40:48.465Z,99646.66
2019-03-10T19:43:18.432Z,99647.98
2019-03-10T19:45:48.537Z,99658.73
2019-03-10T19:48:18.793Z,99660.50
2019-03-10T19:50:49.264Z,99668.42
2019-03-10T19:53:19.468Z,99674.18
2019-03-10T19:55:49.501Z,99673.50
2019-03-10T19:58:19.665Z,99681.00
2019-03-10T20:00:49.797Z,99692.60
2019-03-10T20:03:19.682Z,99685.70
2019-03-10T20:05:52.846Z,99693.50
2019-03-10T20:08:23.072Z,99695.96
2019-03-10T20:10:52.998Z,99711.27
2019-03-10T20:13:23.050Z,99712.34
2019-03-10T20:15:53.269Z,99728.17
2019-03-10T20:18:23.091Z,99729.58
2019-03-10T20:20:57.831Z,99739.11
2019-03-10T20:23:27.839Z,99742.13
2019-03-10T20:25:59.645Z,99740.32
2019-03-10T20:28:30.043Z,99756.73
2019-03-10T20:30:59.307Z,99751.63
2019-03-10T20:33:29.010Z,99752.22
2019-03-10T20:35:58.390Z,99751.78
2019-03-10T20:38:27.950Z,99755.80
2019-03-10T20:40:56.722Z,99762.91
2019-03-10T20:43:25.920Z,99767.34
2019-03-10T20:45:55.986Z,99767.84
2019-03-10T20:48:26.723Z,99769.79
2019-03-10T20:50:56.384Z,99778.70
2019-03-10T20:53:26.054Z,99778.54
2019-03-10T20:55:55.163Z,99775.06
2019-03-10T20:58:24.934Z,99771.14
2019-03-10T21:00:54.308Z,99774.84
2019-03-10T21:03:22.863Z,99778.81
2019-03-10T21:05:52.413Z,99780.76
2019-03-10T21:08:22.010Z,99787.55
2019-03-10T21:10:51.636Z,99787.39
2019-03-10T21:13:20.875Z,99796.20
2019-03-10T21:15:49.879Z,99803.30
2019-03-10T21:18:18.807Z,99810.75
2019-03-10T21:20:47.603Z,99801.60
2019-03-10T21:23:16.413Z,99801.63
2019-03-10T21:25:45.338Z,99809.91
2019-03-10T21:28:14.097Z,99812.94
2019-03-10T21:30:42.803Z,99812.13
2019-03-10T21:33:11.423Z,99814.55
2019-03-10T21:35:40.089Z,99810.87
2019-03-10T21:38:08.522Z,99822.29
2019-03-10T21:40:37.142Z,99816.48
2019-03-10T21:43:05.529Z,99811.66
2019-03-10T21:45:34.897Z,99820.55
2019-03-10T21:48:03.970Z,99820.17
2019-03-10T21:50:32.597Z,99815.58
2019-03-10T21:53:01.800Z,99822.36
2019-03-10T21:55:30.187Z,99816.11
2019-03-10T21:57:58.642Z,99817.84
2019-03-10T22:00:27.018Z,99823.20
2019-03-10T22:02:55.324Z,99830.48
2019-03-10T22:05:23.731Z,99833.23
2019-03-10T22:07:52.222Z,99842.77
2019-03-10T22:10:27.472Z,99846.25
2019-03-10T22:12:54.685Z,99845.34
2019-03-10T22:15:23.141Z,99841.87
2019-03-10T22:17:51.258Z,99849.71
2019-03-10T22:20:19.536Z,99847.07
2019-03-10T22:22:49.869Z,99846.24
2019-03-10T22:25:18.546Z,99848.39
2019-03-10T22:27:46.902Z,99862.09
2019-03-10T22:30:16.566Z,99862.47
2019-03-10T22:32:45.032Z,99862.84
2019-03-10T22:35:13.597Z,99861.52
2019-03-10T22:37:41.923Z,99871.30
2019-03-10T22:40:11.313Z,99871.67
2019-03-10T22:42:39.861Z,99876.05
2019-03-10T22:45:09.408Z,99874.69
2019-03-10T22:47:37.644Z,99888.80
2019-03-10T22:50:06.295Z,99889.67
2019-03-10T22:52:34.574Z,99894.09
2019-03-10T22:55:02.770Z,99888.80
2019-03-10T22:57:31.042Z,99895.86
2019-03-10T22:59:59.511Z,99893.30
2019-03-10T23:02:27.654Z,99901.59
2019-03-10T23:04:55.868Z,99902.08
2019-03-10T23:07:24.188Z,99903.33
2019-03-10T23:09:52.414Z,99904.61
2019-03-10T23:12:23.706Z,99890.08
2019-03-10T23:14:52.038Z,99890.91
2019-03-10T23:17:20.391Z,99880.84
2019-03-10T23:19:48.617Z,99878.20
2019-03-10T23:22:16.839Z,99875.52
2019-03-10T23:24:45.132Z,99879.55
2019-03-10T23:27:13.290Z,99885.22
2019-03-10T23:29:41.461Z,99878.23
2019-03-10T23:32:09.769Z,99879.59
2019-03-10T23:34:38.019Z,99884.88
2019-03-10T23:37:06.183Z,99883.18
2019-03-10T23:39:34.385Z,99891.52
2019-03-10T23:42:02.693Z,99890.58
2019-03-10T23:44:31.011Z,99890.69
2019-03-10T23:46:59.146Z,99894.65
2019-03-10T23:49:27.301Z,99892.34
2019-03-10T23:51:55.518Z,99881.75
2019-03-10T23:54:23.839Z,99885.82
2019-03-10T23:56:52.137Z,99888.88
2019-03-10T23:59:20.221Z,99876.20
